Arcadia, Illinois
Current Conditions -  °F | °C
As of 7:15 PM on Sunday 21 Dec 2014 (Local Time) from KIJX Reporting Station
Overcast Overcast  
Wind Chill: 34°   Ceiling: 3500
Heat Index: 41°   Visibility: 10mi
Dew Point: 32°   Wind: 12mph
Humidity: 72%   Direction: 140°SE
Pressure: 29.99"   Gusts: NA
Location:  39.7413°N, 90.2138°W
Report Text: KIJX 220115Z AUTO 14010KT 10SM OVC035 05/00 A2999 RMK AO2 T00480001
Loading
Personal Weather Stations






























Interactive Weather Map New forecast layout! Learn more

10-Day Weather Forecast

Advertisements
Track Severe Weather on mobile